sensor_id;sensor_type;location;lat;lon;timestamp;P1;durP1;ratioP1;P2;durP2;ratioP2
55330;SDS011;58851;42.984;20.336;2023-08-21T00:02:20;26.92;;;17.42;;
55330;SDS011;58851;42.984;20.336;2023-08-21T00:04:46;28.10;;;16.92;;
55330;SDS011;58851;42.984;20.336;2023-08-21T00:07:12;22.25;;;15.32;;
55330;SDS011;58851;42.984;20.336;2023-08-21T00:09:38;21.00;;;14.80;;
55330;SDS011;58851;42.984;20.336;2023-08-21T00:12:04;20.25;;;14.93;;
55330;SDS011;58851;42.984;20.336;2023-08-21T00:14:30;21.08;;;14.32;;
55330;SDS011;58851;42.984;20.336;2023-08-21T00:16:55;25.25;;;15.93;;
55330;SDS011;58851;42.984;20.336;2023-08-21T00:19:21;30.85;;;15.63;;
55330;SDS011;58851;42.984;20.336;2023-08-21T00:21:47;27.30;;;17.42;;
55330;SDS011;58851;42.984;20.336;2023-08-21T00:24:13;26.67;;;15.45;;
55330;SDS011;58851;42.984;20.336;2023-08-21T00:26:38;21.13;;;14.55;;
55330;SDS011;58851;42.984;20.336;2023-08-21T00:29:04;21.05;;;13.82;;
55330;SDS011;58851;42.984;20.336;2023-08-21T00:31:30;22.75;;;15.23;;
55330;SDS011;58851;42.984;20.336;2023-08-21T00:33:56;22.40;;;15.23;;
55330;SDS011;58851;42.984;20.336;2023-08-21T00:36:21;21.83;;;14.98;;
55330;SDS011;58851;42.984;20.336;2023-08-21T00:38:47;22.33;;;14.95;;
55330;SDS011;58851;42.984;20.336;2023-08-21T00:41:13;19.10;;;13.75;;
55330;SDS011;58851;42.984;20.336;2023-08-21T00:43:39;22.83;;;13.73;;
55330;SDS011;58851;42.984;20.336;2023-08-21T00:46:05;17.42;;;13.38;;
55330;SDS011;58851;42.984;20.336;2023-08-21T00:48:31;15.40;;;12.98;;
55330;SDS011;58851;42.984;20.336;2023-08-21T00:50:57;18.63;;;12.75;;
55330;SDS011;58851;42.984;20.336;2023-08-21T00:53:23;14.50;;;12.52;;
55330;SDS011;58851;42.984;20.336;2023-08-21T00:55:50;15.98;;;12.55;;
55330;SDS011;58851;42.984;20.336;2023-08-21T00:58:15;51.75;;;38.25;;
55330;SDS011;58851;42.984;20.336;2023-08-21T01:00:42;31.27;;;21.70;;
55330;SDS011;58851;42.984;20.336;2023-08-21T01:03:12;17.20;;;13.48;;
55330;SDS011;58851;42.984;20.336;2023-08-21T01:05:38;16.92;;;14.32;;
55330;SDS011;58851;42.984;20.336;2023-08-21T01:08:47;13.93;;;12.43;;
55330;SDS011;58851;42.984;20.336;2023-08-21T01:11:14;21.10;;;14.45;;
55330;SDS011;58851;42.984;20.336;2023-08-21T01:16:46;21.33;;;14.30;;
55330;SDS011;58851;42.984;20.336;2023-08-21T01:19:36;20.30;;;13.85;;
55330;SDS011;58851;42.984;20.336;2023-08-21T01:22:08;19.23;;;13.80;;
55330;SDS011;58851;42.984;20.336;2023-08-21T01:24:34;22.73;;;13.23;;
55330;SDS011;58851;42.984;20.336;2023-08-21T01:27:00;20.98;;;14.43;;
55330;SDS011;58851;42.984;20.336;2023-08-21T01:29:26;22.73;;;15.32;;
55330;SDS011;58851;42.984;20.336;2023-08-21T01:32:06;18.08;;;13.18;;
55330;SDS011;58851;42.984;20.336;2023-08-21T01:34:46;18.77;;;14.95;;
55330;SDS011;58851;42.984;20.336;2023-08-21T01:37:13;19.65;;;14.18;;
55330;SDS011;58851;42.984;20.336;2023-08-21T01:39:40;39.13;;;14.77;;
55330;SDS011;58851;42.984;20.336;2023-08-21T01:42:06;20.55;;;15.50;;
55330;SDS011;58851;42.984;20.336;2023-08-21T01:44:32;22.77;;;15.75;;
55330;SDS011;58851;42.984;20.336;2023-08-21T01:46:58;22.60;;;15.98;;
55330;SDS011;58851;42.984;20.336;2023-08-21T01:49:23;24.05;;;17.88;;
55330;SDS011;58851;42.984;20.336;2023-08-21T01:51:49;14.68;;;12.55;;
55330;SDS011;58851;42.984;20.336;2023-08-21T01:54:15;18.48;;;13.90;;
55330;SDS011;58851;42.984;20.336;2023-08-21T01:56:41;16.25;;;13.30;;
55330;SDS011;58851;42.984;20.336;2023-08-21T01:59:06;21.38;;;13.98;;
55330;SDS011;58851;42.984;20.336;2023-08-21T02:01:32;16.58;;;12.68;;
55330;SDS011;58851;42.984;20.336;2023-08-21T02:03:58;18.05;;;12.00;;
55330;SDS011;58851;42.984;20.336;2023-08-21T02:06:24;16.15;;;12.10;;
55330;SDS011;58851;42.984;20.336;2023-08-21T02:08:50;19.45;;;14.00;;
55330;SDS011;58851;42.984;20.336;2023-08-21T02:11:16;18.92;;;13.50;;
55330;SDS011;58851;42.984;20.336;2023-08-21T02:13:42;21.02;;;14.88;;
55330;SDS011;58851;42.984;20.336;2023-08-21T02:16:07;14.77;;;12.27;;
55330;SDS011;58851;42.984;20.336;2023-08-21T02:18:33;17.20;;;12.50;;
55330;SDS011;58851;42.984;20.336;2023-08-21T02:21:02;16.45;;;13.15;;
55330;SDS011;58851;42.984;20.336;2023-08-21T02:23:28;16.27;;;12.45;;
55330;SDS011;58851;42.984;20.336;2023-08-21T02:25:54;13.75;;;12.35;;
55330;SDS011;58851;42.984;20.336;2023-08-21T02:28:20;20.35;;;13.70;;
55330;SDS011;58851;42.984;20.336;2023-08-21T02:30:46;24.65;;;14.23;;
55330;SDS011;58851;42.984;20.336;2023-08-21T02:33:12;20.30;;;14.95;;
55330;SDS011;58851;42.984;20.336;2023-08-21T02:35:38;26.58;;;15.90;;
55330;SDS011;58851;42.984;20.336;2023-08-21T02:38:04;18.10;;;13.27;;
55330;SDS011;58851;42.984;20.336;2023-08-21T02:40:30;19.75;;;13.65;;
55330;SDS011;58851;42.984;20.336;2023-08-21T02:42:56;19.98;;;12.70;;
55330;SDS011;58851;42.984;20.336;2023-08-21T02:45:22;16.95;;;12.73;;
55330;SDS011;58851;42.984;20.336;2023-08-21T02:47:48;16.35;;;13.55;;
55330;SDS011;58851;42.984;20.336;2023-08-21T02:50:14;21.13;;;13.65;;
55330;SDS011;58851;42.984;20.336;2023-08-21T02:52:40;20.50;;;14.25;;
55330;SDS011;58851;42.984;20.336;2023-08-21T02:55:06;18.98;;;14.85;;
55330;SDS011;58851;42.984;20.336;2023-08-21T02:57:32;15.88;;;13.48;;
55330;SDS011;58851;42.984;20.336;2023-08-21T02:59:58;17.35;;;13.43;;
55330;SDS011;58851;42.984;20.336;2023-08-21T03:02:23;17.40;;;13.00;;
55330;SDS011;58851;42.984;20.336;2023-08-21T03:04:49;18.67;;;15.52;;
55330;SDS011;58851;42.984;20.336;2023-08-21T03:07:16;19.75;;;13.30;;
55330;SDS011;58851;42.984;20.336;2023-08-21T03:09:44;20.45;;;15.00;;
55330;SDS011;58851;42.984;20.336;2023-08-21T03:12:12;17.55;;;15.45;;
55330;SDS011;58851;42.984;20.336;2023-08-21T03:14:38;21.80;;;17.40;;
55330;SDS011;58851;42.984;20.336;2023-08-21T03:17:04;18.60;;;14.98;;
55330;SDS011;58851;42.984;20.336;2023-08-21T03:19:29;23.27;;;16.77;;
55330;SDS011;58851;42.984;20.336;2023-08-21T03:21:55;29.20;;;16.15;;
55330;SDS011;58851;42.984;20.336;2023-08-21T03:24:21;22.52;;;15.30;;
55330;SDS011;58851;42.984;20.336;2023-08-21T03:26:47;21.52;;;16.35;;
55330;SDS011;58851;42.984;20.336;2023-08-21T03:29:13;26.80;;;17.27;;
55330;SDS011;58851;42.984;20.336;2023-08-21T03:31:38;27.50;;;16.55;;
55330;SDS011;58851;42.984;20.336;2023-08-21T03:34:04;20.92;;;15.45;;
55330;SDS011;58851;42.984;20.336;2023-08-21T03:36:30;23.25;;;14.85;;
55330;SDS011;58851;42.984;20.336;2023-08-21T03:39:00;24.15;;;17.15;;
55330;SDS011;58851;42.984;20.336;2023-08-21T03:41:26;29.48;;;17.15;;
55330;SDS011;58851;42.984;20.336;2023-08-21T03:43:52;20.58;;;16.92;;
55330;SDS011;58851;42.984;20.336;2023-08-21T03:46:18;28.13;;;17.70;;
55330;SDS011;58851;42.984;20.336;2023-08-21T03:48:45;22.13;;;16.67;;
55330;SDS011;58851;42.984;20.336;2023-08-21T03:51:10;19.73;;;16.27;;
55330;SDS011;58851;42.984;20.336;2023-08-21T03:53:36;20.63;;;15.13;;
55330;SDS011;58851;42.984;20.336;2023-08-21T03:56:02;21.33;;;16.73;;
55330;SDS011;58851;42.984;20.336;2023-08-21T03:58:28;20.00;;;16.63;;
55330;SDS011;58851;42.984;20.336;2023-08-21T04:00:54;23.80;;;19.25;;
55330;SDS011;58851;42.984;20.336;2023-08-21T04:03:20;21.83;;;17.17;;
55330;SDS011;58851;42.984;20.336;2023-08-21T04:05:46;31.08;;;16.25;;
55330;SDS011;58851;42.984;20.336;2023-08-21T04:08:12;131.70;;;21.80;;
55330;SDS011;58851;42.984;20.336;2023-08-21T04:10:38;59.72;;;19.13;;
55330;SDS011;58851;42.984;20.336;2023-08-21T04:13:04;23.15;;;16.58;;
55330;SDS011;58851;42.984;20.336;2023-08-21T04:15:30;26.17;;;18.33;;
55330;SDS011;58851;42.984;20.336;2023-08-21T04:17:56;156.98;;;26.25;;
55330;SDS011;58851;42.984;20.336;2023-08-21T04:20:22;138.23;;;23.05;;
55330;SDS011;58851;42.984;20.336;2023-08-21T04:22:48;59.50;;;20.40;;
55330;SDS011;58851;42.984;20.336;2023-08-21T04:25:15;21.67;;;15.45;;
55330;SDS011;58851;42.984;20.336;2023-08-21T04:27:41;21.30;;;15.35;;
55330;SDS011;58851;42.984;20.336;2023-08-21T04:30:07;17.73;;;13.95;;
55330;SDS011;58851;42.984;20.336;2023-08-21T04:32:34;19.65;;;13.75;;
55330;SDS011;58851;42.984;20.336;2023-08-21T04:35:00;20.77;;;14.82;;
55330;SDS011;58851;42.984;20.336;2023-08-21T04:37:26;17.67;;;14.25;;
55330;SDS011;58851;42.984;20.336;2023-08-21T04:39:52;15.25;;;13.25;;
55330;SDS011;58851;42.984;20.336;2023-08-21T04:42:18;18.17;;;14.65;;
55330;SDS011;58851;42.984;20.336;2023-08-21T04:44:45;22.23;;;14.23;;
55330;SDS011;58851;42.984;20.336;2023-08-21T04:47:29;21.85;;;13.95;;
55330;SDS011;58851;42.984;20.336;2023-08-21T04:49:55;18.53;;;14.63;;
55330;SDS011;58851;42.984;20.336;2023-08-21T04:52:22;21.55;;;16.58;;
55330;SDS011;58851;42.984;20.336;2023-08-21T04:54:48;16.10;;;13.50;;
55330;SDS011;58851;42.984;20.336;2023-08-21T04:57:14;21.75;;;15.20;;
55330;SDS011;58851;42.984;20.336;2023-08-21T04:59:41;17.23;;;13.82;;
55330;SDS011;58851;42.984;20.336;2023-08-21T05:02:07;18.17;;;14.55;;
55330;SDS011;58851;42.984;20.336;2023-08-21T05:04:33;19.17;;;14.65;;
55330;SDS011;58851;42.984;20.336;2023-08-21T05:07:00;21.90;;;15.82;;
55330;SDS011;58851;42.984;20.336;2023-08-21T05:09:26;18.15;;;15.38;;
55330;SDS011;58851;42.984;20.336;2023-08-21T05:11:52;19.75;;;15.30;;
55330;SDS011;58851;42.984;20.336;2023-08-21T05:14:19;18.25;;;14.07;;
55330;SDS011;58851;42.984;20.336;2023-08-21T05:16:45;17.13;;;14.80;;
55330;SDS011;58851;42.984;20.336;2023-08-21T05:19:11;24.05;;;15.98;;
55330;SDS011;58851;42.984;20.336;2023-08-21T05:21:37;17.52;;;13.70;;
55330;SDS011;58851;42.984;20.336;2023-08-21T05:24:03;21.45;;;16.05;;
55330;SDS011;58851;42.984;20.336;2023-08-21T05:26:29;20.80;;;16.80;;
55330;SDS011;58851;42.984;20.336;2023-08-21T05:28:55;17.02;;;13.73;;
55330;SDS011;58851;42.984;20.336;2023-08-21T05:31:20;19.60;;;14.45;;
55330;SDS011;58851;42.984;20.336;2023-08-21T05:33:46;19.80;;;14.00;;
55330;SDS011;58851;42.984;20.336;2023-08-21T05:36:12;24.67;;;15.32;;
55330;SDS011;58851;42.984;20.336;2023-08-21T05:38:38;23.50;;;14.20;;
55330;SDS011;58851;42.984;20.336;2023-08-21T05:41:03;20.63;;;16.67;;
55330;SDS011;58851;42.984;20.336;2023-08-21T05:43:29;22.15;;;16.20;;
55330;SDS011;58851;42.984;20.336;2023-08-21T05:45:55;20.67;;;15.52;;
55330;SDS011;58851;42.984;20.336;2023-08-21T05:48:21;21.25;;;15.85;;
55330;SDS011;58851;42.984;20.336;2023-08-21T05:50:50;24.33;;;14.60;;
55330;SDS011;58851;42.984;20.336;2023-08-21T05:53:17;18.30;;;13.60;;
55330;SDS011;58851;42.984;20.336;2023-08-21T05:55:43;22.25;;;15.73;;
55330;SDS011;58851;42.984;20.336;2023-08-21T05:58:08;18.58;;;14.80;;
55330;SDS011;58851;42.984;20.336;2023-08-21T06:00:34;17.83;;;14.05;;
55330;SDS011;58851;42.984;20.336;2023-08-21T06:03:01;20.77;;;15.18;;
55330;SDS011;58851;42.984;20.336;2023-08-21T06:05:27;19.23;;;14.98;;
55330;SDS011;58851;42.984;20.336;2023-08-21T06:07:52;18.45;;;15.23;;
55330;SDS011;58851;42.984;20.336;2023-08-21T06:10:18;20.88;;;15.48;;
55330;SDS011;58851;42.984;20.336;2023-08-21T06:12:44;21.40;;;14.80;;
55330;SDS011;58851;42.984;20.336;2023-08-21T06:15:10;18.88;;;13.85;;
55330;SDS011;58851;42.984;20.336;2023-08-21T06:17:37;20.52;;;14.32;;
55330;SDS011;58851;42.984;20.336;2023-08-21T06:20:03;22.05;;;16.38;;
55330;SDS011;58851;42.984;20.336;2023-08-21T06:22:34;19.67;;;15.10;;
55330;SDS011;58851;42.984;20.336;2023-08-21T06:25:00;20.58;;;16.38;;
55330;SDS011;58851;42.984;20.336;2023-08-21T06:27:26;20.08;;;15.38;;
55330;SDS011;58851;42.984;20.336;2023-08-21T06:29:52;23.55;;;15.63;;
55330;SDS011;58851;42.984;20.336;2023-08-21T06:32:17;20.73;;;15.15;;
55330;SDS011;58851;42.984;20.336;2023-08-21T06:34:43;16.65;;;14.10;;
55330;SDS011;58851;42.984;20.336;2023-08-21T06:37:09;20.13;;;12.90;;
55330;SDS011;58851;42.984;20.336;2023-08-21T06:39:35;16.20;;;12.73;;
55330;SDS011;58851;42.984;20.336;2023-08-21T06:42:01;22.23;;;13.63;;
55330;SDS011;58851;42.984;20.336;2023-08-21T06:44:27;20.63;;;13.02;;
55330;SDS011;58851;42.984;20.336;2023-08-21T06:46:53;16.05;;;12.27;;
55330;SDS011;58851;42.984;20.336;2023-08-21T06:49:18;17.48;;;12.55;;
55330;SDS011;58851;42.984;20.336;2023-08-21T06:51:44;13.00;;;11.43;;
55330;SDS011;58851;42.984;20.336;2023-08-21T06:54:10;14.93;;;11.48;;
55330;SDS011;58851;42.984;20.336;2023-08-21T06:56:36;22.52;;;13.38;;
55330;SDS011;58851;42.984;20.336;2023-08-21T06:59:01;18.58;;;13.02;;
55330;SDS011;58851;42.984;20.336;2023-08-21T07:01:27;24.85;;;12.73;;
55330;SDS011;58851;42.984;20.336;2023-08-21T07:03:53;15.23;;;11.93;;
55330;SDS011;58851;42.984;20.336;2023-08-21T07:06:19;17.95;;;11.57;;
55330;SDS011;58851;42.984;20.336;2023-08-21T07:08:45;14.60;;;11.10;;
55330;SDS011;58851;42.984;20.336;2023-08-21T07:11:11;14.60;;;11.20;;
55330;SDS011;58851;42.984;20.336;2023-08-21T07:13:37;13.57;;;11.52;;
55330;SDS011;58851;42.984;20.336;2023-08-21T07:16:04;15.35;;;10.98;;
55330;SDS011;58851;42.984;20.336;2023-08-21T07:18:32;15.63;;;12.00;;
55330;SDS011;58851;42.984;20.336;2023-08-21T07:20:58;17.50;;;13.43;;
55330;SDS011;58851;42.984;20.336;2023-08-21T07:23:25;23.60;;;13.15;;
55330;SDS011;58851;42.984;20.336;2023-08-21T07:25:51;20.17;;;12.88;;
55330;SDS011;58851;42.984;20.336;2023-08-21T07:28:17;15.18;;;12.05;;
55330;SDS011;58851;42.984;20.336;2023-08-21T07:30:43;14.98;;;11.57;;
55330;SDS011;58851;42.984;20.336;2023-08-21T07:33:08;20.63;;;13.15;;
55330;SDS011;58851;42.984;20.336;2023-08-21T07:35:35;35.17;;;15.18;;
55330;SDS011;58851;42.984;20.336;2023-08-21T07:38:01;18.40;;;13.32;;
55330;SDS011;58851;42.984;20.336;2023-08-21T07:40:27;20.73;;;13.55;;
55330;SDS011;58851;42.984;20.336;2023-08-21T07:42:53;29.42;;;14.50;;
55330;SDS011;58851;42.984;20.336;2023-08-21T07:45:19;20.08;;;12.68;;
55330;SDS011;58851;42.984;20.336;2023-08-21T07:47:45;22.65;;;16.45;;
55330;SDS011;58851;42.984;20.336;2023-08-21T07:50:10;19.67;;;15.20;;
55330;SDS011;58851;42.984;20.336;2023-08-21T07:52:36;22.30;;;15.32;;
55330;SDS011;58851;42.984;20.336;2023-08-21T07:55:02;19.17;;;13.43;;
55330;SDS011;58851;42.984;20.336;2023-08-21T07:57:28;17.65;;;13.57;;
55330;SDS011;58851;42.984;20.336;2023-08-21T07:59:55;16.38;;;13.38;;
55330;SDS011;58851;42.984;20.336;2023-08-21T08:02:21;19.55;;;14.45;;
55330;SDS011;58851;42.984;20.336;2023-08-21T08:04:48;21.35;;;16.42;;
55330;SDS011;58851;42.984;20.336;2023-08-21T08:07:13;16.27;;;12.77;;
55330;SDS011;58851;42.984;20.336;2023-08-21T08:09:39;18.15;;;13.23;;
55330;SDS011;58851;42.984;20.336;2023-08-21T08:12:05;17.02;;;13.30;;
55330;SDS011;58851;42.984;20.336;2023-08-21T08:14:31;13.98;;;12.52;;
55330;SDS011;58851;42.984;20.336;2023-08-21T08:16:57;22.90;;;14.23;;
55330;SDS011;58851;42.984;20.336;2023-08-21T08:19:23;27.70;;;13.80;;
55330;SDS011;58851;42.984;20.336;2023-08-21T08:21:49;23.33;;;13.55;;
55330;SDS011;58851;42.984;20.336;2023-08-21T08:24:15;17.90;;;12.95;;
55330;SDS011;58851;42.984;20.336;2023-08-21T08:26:41;19.48;;;12.95;;
55330;SDS011;58851;42.984;20.336;2023-08-21T08:29:08;20.58;;;14.57;;
55330;SDS011;58851;42.984;20.336;2023-08-21T08:31:34;19.30;;;13.30;;
55330;SDS011;58851;42.984;20.336;2023-08-21T08:34:00;19.90;;;13.80;;
55330;SDS011;58851;42.984;20.336;2023-08-21T08:36:26;16.35;;;13.25;;
55330;SDS011;58851;42.984;20.336;2023-08-21T08:38:51;18.55;;;13.70;;
55330;SDS011;58851;42.984;20.336;2023-08-21T08:41:33;18.40;;;14.15;;
55330;SDS011;58851;42.984;20.336;2023-08-21T08:44:08;21.42;;;13.93;;
55330;SDS011;58851;42.984;20.336;2023-08-21T08:46:34;18.77;;;14.30;;
55330;SDS011;58851;42.984;20.336;2023-08-21T08:49:02;21.30;;;13.88;;
55330;SDS011;58851;42.984;20.336;2023-08-21T08:51:29;23.45;;;16.25;;
55330;SDS011;58851;42.984;20.336;2023-08-21T08:53:57;20.42;;;16.05;;
55330;SDS011;58851;42.984;20.336;2023-08-21T08:56:24;20.42;;;16.65;;
55330;SDS011;58851;42.984;20.336;2023-08-21T08:58:50;20.67;;;17.20;;
55330;SDS011;58851;42.984;20.336;2023-08-21T09:01:16;23.67;;;15.02;;
55330;SDS011;58851;42.984;20.336;2023-08-21T09:03:42;23.80;;;16.80;;
55330;SDS011;58851;42.984;20.336;2023-08-21T09:06:08;27.23;;;17.75;;
55330;SDS011;58851;42.984;20.336;2023-08-21T09:08:34;23.55;;;16.13;;
55330;SDS011;58851;42.984;20.336;2023-08-21T09:11:02;19.15;;;16.67;;
55330;SDS011;58851;42.984;20.336;2023-08-21T09:13:28;26.92;;;20.85;;
55330;SDS011;58851;42.984;20.336;2023-08-21T09:15:56;50.60;;;25.25;;
55330;SDS011;58851;42.984;20.336;2023-08-21T09:18:22;25.38;;;16.73;;
55330;SDS011;58851;42.984;20.336;2023-08-21T09:20:48;26.45;;;19.55;;
55330;SDS011;58851;42.984;20.336;2023-08-21T09:23:17;41.78;;;19.90;;
55330;SDS011;58851;42.984;20.336;2023-08-21T09:25:44;37.75;;;21.45;;
55330;SDS011;58851;42.984;20.336;2023-08-21T09:28:14;64.80;;;24.50;;
55330;SDS011;58851;42.984;20.336;2023-08-21T09:30:48;39.15;;;15.80;;
55330;SDS011;58851;42.984;20.336;2023-08-21T09:33:21;28.05;;;16.55;;
55330;SDS011;58851;42.984;20.336;2023-08-21T09:35:48;24.60;;;15.57;;
55330;SDS011;58851;42.984;20.336;2023-08-21T09:38:16;13.45;;;11.40;;
55330;SDS011;58851;42.984;20.336;2023-08-21T09:40:42;15.50;;;11.85;;
55330;SDS011;58851;42.984;20.336;2023-08-21T09:43:16;43.30;;;26.58;;
55330;SDS011;58851;42.984;20.336;2023-08-21T09:45:42;25.80;;;13.13;;
55330;SDS011;58851;42.984;20.336;2023-08-21T09:48:11;32.53;;;14.68;;
55330;SDS011;58851;42.984;20.336;2023-08-21T09:50:38;33.17;;;16.25;;
55330;SDS011;58851;42.984;20.336;2023-08-21T09:53:08;23.40;;;13.20;;
55330;SDS011;58851;42.984;20.336;2023-08-21T09:55:34;22.83;;;13.23;;
55330;SDS011;58851;42.984;20.336;2023-08-21T09:58:01;16.52;;;11.18;;
55330;SDS011;58851;42.984;20.336;2023-08-21T10:00:31;22.58;;;12.63;;
55330;SDS011;58851;42.984;20.336;2023-08-21T10:03:05;18.95;;;9.88;;
55330;SDS011;58851;42.984;20.336;2023-08-21T10:05:35;26.02;;;13.00;;
55330;SDS011;58851;42.984;20.336;2023-08-21T10:08:04;19.38;;;12.30;;
55330;SDS011;58851;42.984;20.336;2023-08-21T10:10:31;14.13;;;10.10;;
55330;SDS011;58851;42.984;20.336;2023-08-21T10:13:01;20.33;;;18.25;;
55330;SDS011;58851;42.984;20.336;2023-08-21T10:15:28;15.32;;;10.73;;
55330;SDS011;58851;42.984;20.336;2023-08-21T10:17:56;16.20;;;9.73;;
55330;SDS011;58851;42.984;20.336;2023-08-21T10:20:24;15.20;;;10.30;;
55330;SDS011;58851;42.984;20.336;2023-08-21T10:22:55;34.53;;;11.02;;
55330;SDS011;58851;42.984;20.336;2023-08-21T10:25:26;14.80;;;9.93;;
55330;SDS011;58851;42.984;20.336;2023-08-21T10:27:53;35.58;;;13.13;;
55330;SDS011;58851;42.984;20.336;2023-08-21T10:30:24;13.88;;;9.10;;
55330;SDS011;58851;42.984;20.336;2023-08-21T10:32:51;13.90;;;9.93;;
55330;SDS011;58851;42.984;20.336;2023-08-21T10:35:20;11.88;;;8.95;;
55330;SDS011;58851;42.984;20.336;2023-08-21T10:40:38;15.68;;;8.63;;
55330;SDS011;58851;42.984;20.336;2023-08-21T10:43:05;18.52;;;9.07;;
55330;SDS011;58851;42.984;20.336;2023-08-21T10:46:08;11.13;;;9.10;;
55330;SDS011;58851;42.984;20.336;2023-08-21T10:48:35;29.38;;;10.18;;
55330;SDS011;58851;42.984;20.336;2023-08-21T10:51:02;35.03;;;11.88;;
55330;SDS011;58851;42.984;20.336;2023-08-21T10:53:32;35.70;;;13.20;;
55330;SDS011;58851;42.984;20.336;2023-08-21T10:56:02;18.58;;;11.13;;
55330;SDS011;58851;42.984;20.336;2023-08-21T10:58:34;29.52;;;11.50;;
55330;SDS011;58851;42.984;20.336;2023-08-21T11:01:13;35.35;;;12.68;;
55330;SDS011;58851;42.984;20.336;2023-08-21T11:03:39;37.75;;;12.50;;
55330;SDS011;58851;42.984;20.336;2023-08-21T11:06:09;19.90;;;10.30;;
55330;SDS011;58851;42.984;20.336;2023-08-21T11:08:36;31.73;;;11.20;;
55330;SDS011;58851;42.984;20.336;2023-08-21T11:11:03;22.77;;;11.00;;
55330;SDS011;58851;42.984;20.336;2023-08-21T11:13:29;90.93;;;20.58;;
55330;SDS011;58851;42.984;20.336;2023-08-21T11:15:59;42.17;;;18.35;;
55330;SDS011;58851;42.984;20.336;2023-08-21T11:18:30;25.85;;;12.05;;
55330;SDS011;58851;42.984;20.336;2023-08-21T11:21:08;26.48;;;12.93;;
55330;SDS011;58851;42.984;20.336;2023-08-21T11:23:36;15.05;;;10.25;;
55330;SDS011;58851;42.984;20.336;2023-08-21T11:26:03;23.40;;;12.63;;
55330;SDS011;58851;42.984;20.336;2023-08-21T11:28:31;18.63;;;9.23;;
55330;SDS011;58851;42.984;20.336;2023-08-21T11:30:58;14.98;;;10.35;;
55330;SDS011;58851;42.984;20.336;2023-08-21T11:33:31;21.52;;;11.65;;
55330;SDS011;58851;42.984;20.336;2023-08-21T11:35:57;18.45;;;11.35;;
55330;SDS011;58851;42.984;20.336;2023-08-21T11:38:25;16.33;;;10.82;;
55330;SDS011;58851;42.984;20.336;2023-08-21T11:40:56;29.50;;;12.85;;
55330;SDS011;58851;42.984;20.336;2023-08-21T11:43:35;12.45;;;8.68;;
55330;SDS011;58851;42.984;20.336;2023-08-21T11:46:05;12.98;;;9.80;;
55330;SDS011;58851;42.984;20.336;2023-08-21T11:48:32;20.92;;;11.00;;
55330;SDS011;58851;42.984;20.336;2023-08-21T11:50:58;24.17;;;10.98;;
55330;SDS011;58851;42.984;20.336;2023-08-21T11:53:35;24.50;;;11.32;;
55330;SDS011;58851;42.984;20.336;2023-08-21T11:56:12;16.30;;;9.65;;
55330;SDS011;58851;42.984;20.336;2023-08-21T11:58:39;11.82;;;8.65;;
55330;SDS011;58851;42.984;20.336;2023-08-21T12:01:06;14.23;;;8.43;;
55330;SDS011;58851;42.984;20.336;2023-08-21T12:03:35;22.63;;;10.45;;
55330;SDS011;58851;42.984;20.336;2023-08-21T12:06:08;16.77;;;9.90;;
55330;SDS011;58851;42.984;20.336;2023-08-21T12:08:35;22.95;;;9.85;;
55330;SDS011;58851;42.984;20.336;2023-08-21T12:11:01;11.95;;;7.65;;
55330;SDS011;58851;42.984;20.336;2023-08-21T12:13:28;18.85;;;9.00;;
55330;SDS011;58851;42.984;20.336;2023-08-21T12:15:54;17.63;;;9.10;;
55330;SDS011;58851;42.984;20.336;2023-08-21T12:18:20;11.13;;;7.82;;
55330;SDS011;58851;42.984;20.336;2023-08-21T12:20:46;17.23;;;9.98;;
55330;SDS011;58851;42.984;20.336;2023-08-21T12:23:12;14.02;;;8.75;;
55330;SDS011;58851;42.984;20.336;2023-08-21T12:25:37;31.15;;;10.93;;
55330;SDS011;58851;42.984;20.336;2023-08-21T12:28:04;30.83;;;12.52;;
55330;SDS011;58851;42.984;20.336;2023-08-21T12:30:31;21.00;;;9.48;;
55330;SDS011;58851;42.984;20.336;2023-08-21T12:32:56;12.30;;;8.48;;
55330;SDS011;58851;42.984;20.336;2023-08-21T12:35:22;20.55;;;10.27;;
55330;SDS011;58851;42.984;20.336;2023-08-21T12:37:48;11.95;;;7.85;;
55330;SDS011;58851;42.984;20.336;2023-08-21T12:40:14;19.10;;;8.02;;
55330;SDS011;58851;42.984;20.336;2023-08-21T12:42:40;12.25;;;8.35;;
55330;SDS011;58851;42.984;20.336;2023-08-21T12:45:05;14.63;;;8.23;;
55330;SDS011;58851;42.984;20.336;2023-08-21T12:47:32;8.55;;;6.78;;
55330;SDS011;58851;42.984;20.336;2023-08-21T12:49:58;14.50;;;8.82;;
55330;SDS011;58851;42.984;20.336;2023-08-21T12:52:24;12.68;;;7.47;;
55330;SDS011;58851;42.984;20.336;2023-08-21T12:54:49;15.52;;;7.82;;
55330;SDS011;58851;42.984;20.336;2023-08-21T12:57:15;15.75;;;8.30;;
55330;SDS011;58851;42.984;20.336;2023-08-21T12:59:42;22.40;;;8.57;;
55330;SDS011;58851;42.984;20.336;2023-08-21T13:02:08;8.63;;;6.80;;
55330;SDS011;58851;42.984;20.336;2023-08-21T13:04:33;13.52;;;7.70;;
55330;SDS011;58851;42.984;20.336;2023-08-21T13:06:59;11.05;;;6.78;;
55330;SDS011;58851;42.984;20.336;2023-08-21T13:09:26;11.93;;;7.22;;
55330;SDS011;58851;42.984;20.336;2023-08-21T13:11:53;11.15;;;7.13;;
55330;SDS011;58851;42.984;20.336;2023-08-21T13:14:19;9.73;;;6.25;;
55330;SDS011;58851;42.984;20.336;2023-08-21T13:16:45;12.43;;;7.25;;
55330;SDS011;58851;42.984;20.336;2023-08-21T13:19:11;10.65;;;7.13;;
55330;SDS011;58851;42.984;20.336;2023-08-21T13:21:37;8.98;;;7.30;;
55330;SDS011;58851;42.984;20.336;2023-08-21T13:24:03;10.05;;;6.85;;
55330;SDS011;58851;42.984;20.336;2023-08-21T13:26:29;13.02;;;7.18;;
55330;SDS011;58851;42.984;20.336;2023-08-21T13:28:56;11.82;;;7.32;;
55330;SDS011;58851;42.984;20.336;2023-08-21T13:31:22;10.82;;;6.90;;
55330;SDS011;58851;42.984;20.336;2023-08-21T13:33:48;8.63;;;7.07;;
55330;SDS011;58851;42.984;20.336;2023-08-21T13:36:15;11.27;;;7.18;;
55330;SDS011;58851;42.984;20.336;2023-08-21T13:38:42;11.43;;;7.97;;
55330;SDS011;58851;42.984;20.336;2023-08-21T13:41:08;16.67;;;7.13;;
55330;SDS011;58851;42.984;20.336;2023-08-21T13:43:34;9.85;;;6.65;;
55330;SDS011;58851;42.984;20.336;2023-08-21T13:46:01;11.68;;;6.50;;
55330;SDS011;58851;42.984;20.336;2023-08-21T13:48:29;11.90;;;7.82;;
55330;SDS011;58851;42.984;20.336;2023-08-21T13:50:55;19.15;;;7.75;;
55330;SDS011;58851;42.984;20.336;2023-08-21T13:53:21;10.90;;;6.53;;
55330;SDS011;58851;42.984;20.336;2023-08-21T13:55:47;13.95;;;7.65;;
55330;SDS011;58851;42.984;20.336;2023-08-21T13:58:13;12.45;;;7.57;;
55330;SDS011;58851;42.984;20.336;2023-08-21T14:00:39;14.38;;;7.75;;
55330;SDS011;58851;42.984;20.336;2023-08-21T14:03:04;14.20;;;7.68;;
55330;SDS011;58851;42.984;20.336;2023-08-21T14:05:30;9.75;;;6.45;;
55330;SDS011;58851;42.984;20.336;2023-08-21T14:07:56;11.15;;;6.85;;
55330;SDS011;58851;42.984;20.336;2023-08-21T14:10:23;15.05;;;7.32;;
55330;SDS011;58851;42.984;20.336;2023-08-21T14:12:49;12.38;;;6.90;;
55330;SDS011;58851;42.984;20.336;2023-08-21T14:15:16;11.50;;;6.75;;
55330;SDS011;58851;42.984;20.336;2023-08-21T14:17:43;13.30;;;6.03;;